Time;durP1;ratioP1;P1;durP2;ratioP2;P2;SDS_P1;SDS_P2;PMS_P1;PMS_P2;Temp;Humidity;BMP_temperature;BMP_pressure;BME280_temperature;BME280_humidity;BME280_pressure;Samples;Min_cycle;Max_cycle;Signal;HPM_P1;HPM_P2
2023/03/18 00:01:06;;;;;;;9.23;6.43;;;;;;;10.21;100.00;100862.66;5104719;28;20306;-71
2023/03/18 00:03:33;;;;;;;9.50;5.83;;;;;;;10.21;100.00;100865.22;5105859;28;20664;-71
2023/03/18 00:06:07;;;;;;;8.43;5.60;;;;;;;10.21;100.00;100865.22;5109803;28;20213;-69
2023/03/18 00:08:33;;;;;;;12.03;5.80;;;;;;;10.21;100.00;100874.56;5106253;28;20187;-69
2023/03/18 00:10:59;;;;;;;8.80;6.13;;;;;;;10.17;100.00;100867.66;5108898;28;20573;-71
2023/03/18 00:13:26;;;;;;;9.20;6.00;;;;;;;10.07;100.00;100866.63;5108854;28;20211;-70
2023/03/18 00:15:52;;;;;;;8.73;5.70;;;;;;;10.09;100.00;100862.38;5111323;28;20211;-69
2023/03/18 00:18:18;;;;;;;7.70;6.17;;;;;;;10.14;100.00;100865.06;5107687;28;20775;-70
2023/03/18 00:20:44;;;;;;;9.57;5.73;;;;;;;10.14;100.00;100857.38;5103200;28;20246;-70
2023/03/18 00:23:10;;;;;;;8.10;5.63;;;;;;;10.14;100.00;100853.13;5109476;28;20195;-70
2023/03/18 00:25:37;;;;;;;9.23;5.53;;;;;;;10.14;100.00;100853.13;5107739;28;20195;-70
2023/03/18 00:28:05;;;;;;;7.07;5.73;;;;;;;10.15;100.00;100856.53;5106270;28;20192;-71
2023/03/18 00:30:31;;;;;;;7.97;6.03;;;;;;;10.13;100.00;100856.50;5107405;28;20202;-69
2023/03/18 00:32:57;;;;;;;8.13;6.03;;;;;;;10.03;100.00;100857.13;5092401;28;20199;-69
2023/03/18 00:35:26;;;;;;;9.37;5.87;;;;;;;10.01;100.00;100863.91;5085251;28;20214;-69
2023/03/18 00:37:53;;;;;;;7.70;6.43;;;;;;;9.98;100.00;100858.72;5111406;28;20191;-70
2023/03/18 00:40:26;;;;;;;7.83;5.70;;;;;;;10.02;100.00;100855.41;5092324;28;20813;-70
2023/03/18 00:42:56;;;;;;;6.97;5.93;;;;;;;10.02;100.00;100857.06;5089262;28;20270;-71
2023/03/18 00:45:22;;;;;;;11.00;5.80;;;;;;;10.00;100.00;100849.38;5083895;28;20330;-72
2023/03/18 00:47:49;;;;;;;7.63;5.73;;;;;;;9.94;100.00;100861.16;5093344;28;20735;-72
2023/03/18 00:50:15;;;;;;;6.97;5.93;;;;;;;9.92;100.00;100857.72;5105076;28;20680;-70
2023/03/18 00:52:41;;;;;;;8.37;5.77;;;;;;;9.89;100.00;100865.31;5092583;28;20241;-70
2023/03/18 00:55:07;;;;;;;8.33;6.30;;;;;;;9.88;100.00;100866.16;5086377;28;20308;-70
2023/03/18 00:57:33;;;;;;;8.57;6.03;;;;;;;9.84;100.00;100872.88;5092200;28;20688;-70
2023/03/18 00:59:59;;;;;;;8.70;6.33;;;;;;;9.84;100.00;100877.13;5082013;28;20429;-70
2023/03/18 01:02:26;;;;;;;6.60;5.07;;;;;;;9.86;100.00;100873.78;5090911;28;20211;-71
2023/03/18 01:04:52;;;;;;;8.77;5.87;;;;;;;9.89;100.00;100866.19;5093750;28;20249;-71
2023/03/18 01:07:18;;;;;;;8.03;6.00;;;;;;;9.89;100.00;100853.41;5084351;28;20192;-71
2023/03/18 01:09:44;;;;;;;7.07;5.90;;;;;;;9.90;100.00;100861.94;5072565;28;20231;-71
2023/03/18 01:12:10;;;;;;;7.87;6.00;;;;;;;9.88;100.00;100861.91;5088188;28;20219;-72
2023/03/18 01:14:37;;;;;;;6.93;5.60;;;;;;;9.88;100.00;100850.81;5092416;28;20207;-71
2023/03/18 01:17:04;;;;;;;9.13;5.80;;;;;;;9.91;100.00;100861.94;5107918;28;20212;-72
2023/03/18 01:19:30;;;;;;;6.73;5.70;;;;;;;9.89;100.00;100857.63;5103027;28;20202;-70
2023/03/18 01:21:56;;;;;;;6.03;5.43;;;;;;;9.90;100.00;100855.13;5089508;28;20207;-71
2023/03/18 01:24:22;;;;;;;8.83;5.07;;;;;;;9.91;100.00;100853.44;5088529;28;20215;-71
2023/03/18 01:26:47;;;;;;;10.53;5.20;;;;;;;9.92;100.00;100850.03;5090796;28;20214;-72
2023/03/18 01:29:13;;;;;;;7.07;5.50;;;;;;;9.91;100.00;100849.16;5107169;28;20692;-71
2023/03/18 01:31:39;;;;;;;6.40;5.03;;;;;;;9.91;100.00;100849.16;5092023;28;20219;-71
2023/03/18 01:34:10;;;;;;;8.40;5.60;;;;;;;9.91;100.00;100853.44;5087029;28;20192;-72
2023/03/18 01:36:45;;;;;;;6.03;4.43;;;;;;;9.91;100.00;100854.28;5092413;28;20207;-72
2023/03/18 01:39:12;;;;;;;5.33;4.73;;;;;;;9.90;100.00;100855.13;5104548;28;20184;-71
2023/03/18 01:41:39;;;;;;;7.33;5.20;;;;;;;9.90;100.00;100855.13;5089995;28;20222;-71
2023/03/18 01:44:18;;;;;;;7.63;5.00;;;;;;;9.90;100.00;100867.91;5087250;28;20445;-71
2023/03/18 01:46:49;;;;;;;6.73;4.63;;;;;;;9.90;100.00;100867.06;5091722;28;20278;-71
2023/03/18 01:49:35;;;;;;;8.30;5.40;;;;;;;9.90;100.00;100873.03;5089056;28;20237;-72
2023/03/18 01:52:15;;;;;;;5.33;4.30;;;;;;;9.89;100.00;100880.66;5090327;28;20207;-71
2023/03/18 01:54:46;;;;;;;7.60;5.23;;;;;;;9.88;100.00;100873.81;5088788;28;20675;-72
2023/03/18 01:57:16;;;;;;;8.77;5.30;;;;;;;9.89;100.00;100866.19;5080551;28;20721;-69
2023/03/18 01:59:42;;;;;;;6.17;5.03;;;;;;;9.89;100.00;100865.31;5092372;28;20205;-70
2023/03/18 02:02:10;;;;;;;6.43;5.13;;;;;;;9.90;100.00;100862.78;5086226;28;20743;-71
2023/03/18 02:04:41;;;;;;;7.27;5.07;;;;;;;9.90;100.00;100867.91;5106158;27;20727;-72
2023/03/18 02:07:14;;;;;;;8.63;5.17;;;;;;;9.91;100.00;100871.34;5090048;28;20227;-70
2023/03/18 02:09:40;;;;;;;7.37;4.97;;;;;;;9.91;100.00;100871.34;5105906;28;20317;-70
2023/03/18 02:12:07;;;;;;;6.00;5.03;;;;;;;9.93;100.00;100869.66;5088888;28;20657;-71
2023/03/18 02:14:33;;;;;;;6.13;4.90;;;;;;;9.93;100.00;100872.22;5089872;28;20215;-73
2023/03/18 02:17:14;;;;;;;6.80;4.77;;;;;;;9.94;100.00;100876.50;5089758;28;20583;-72
2023/03/18 02:20:09;;;;;;;8.80;5.10;;;;;;;9.93;100.00;100883.31;5090336;28;20236;-71
2023/03/18 02:22:40;;;;;;;6.23;4.40;;;;;;;9.91;100.00;100882.41;5103929;28;20226;-71
2023/03/18 02:25:16;;;;;;;8.87;5.17;;;;;;;9.92;100.00;100878.19;5084072;28;20195;-70
2023/03/18 02:27:44;;;;;;;8.87;4.70;;;;;;;9.91;100.00;100879.84;5087919;28;20231;-72
2023/03/18 02:30:24;;;;;;;8.67;4.97;;;;;;;9.90;100.00;100882.41;5070202;28;20187;-70
2023/03/18 02:32:55;;;;;;;6.10;4.83;;;;;;;9.90;100.00;100878.13;5087503;28;20187;-70
2023/03/18 02:35:21;;;;;;;5.77;4.37;;;;;;;9.90;100.00;100885.81;5087554;28;20724;-72
2023/03/18 02:37:48;;;;;;;7.83;4.87;;;;;;;9.92;100.00;100880.72;5087609;28;20180;-71
2023/03/18 02:40:23;;;;;;;8.73;5.00;;;;;;;9.92;100.00;100886.72;5088111;28;20192;-71
2023/03/18 02:42:49;;;;;;;6.73;4.67;;;;;;;9.92;100.00;100883.28;5107521;28;20207;-70
2023/03/18 02:45:37;;;;;;;7.57;4.70;;;;;;;9.90;100.00;100878.13;5106736;28;20236;-71
2023/03/18 02:48:12;;;;;;;5.87;4.70;;;;;;;9.90;100.00;100875.56;5107213;28;20222;-70
2023/03/18 02:50:38;;;;;;;8.90;4.93;;;;;;;9.87;100.00;100875.50;5084558;28;20203;-71
2023/03/18 02:53:04;;;;;;;7.93;5.20;;;;;;;9.84;100.00;100883.13;5085286;28;20195;-70
2023/03/18 02:55:30;;;;;;;5.80;5.07;;;;;;;9.85;100.00;100882.28;5085146;28;20881;-71
2023/03/18 02:57:56;;;;;;;5.53;4.70;;;;;;;9.86;100.00;100881.44;5086916;28;20215;-72
2023/03/18 03:00:22;;;;;;;6.23;4.60;;;;;;;9.86;100.00;100878.88;5088273;28;20705;-71
2023/03/18 03:02:47;;;;;;;5.63;4.70;;;;;;;9.85;100.00;100876.28;5088771;28;20213;-72
2023/03/18 03:05:14;;;;;;;6.60;5.07;;;;;;;9.86;100.00;100878.88;5070276;28;20176;-72
2023/03/18 03:07:40;;;;;;;7.33;4.63;;;;;;;9.84;100.00;100882.25;5088053;28;20206;-71
2023/03/18 03:10:08;;;;;;;7.23;5.00;;;;;;;9.84;100.00;100879.69;5090286;28;20195;-71
2023/03/18 03:12:36;;;;;;;9.30;5.43;;;;;;;9.83;100.00;100878.84;5090193;28;20199;-72
2023/03/18 03:15:04;;;;;;;8.93;5.20;;;;;;;9.81;100.00;100880.47;5088577;28;20210;-69
2023/03/18 03:17:30;;;;;;;6.00;4.60;;;;;;;9.80;100.00;100870.22;5080611;28;20193;-69
2023/03/18 03:19:56;;;;;;;6.27;4.93;;;;;;;9.79;100.00;100871.94;5086018;28;20192;-74
2023/03/18 03:22:22;;;;;;;7.37;4.80;;;;;;;9.81;100.00;100877.09;5087271;28;20207;-71
2023/03/18 03:24:48;;;;;;;8.33;4.87;;;;;;;9.79;100.00;100884.72;5105679;28;20211;-71
2023/03/18 03:27:13;;;;;;;6.90;4.70;;;;;;;9.81;100.00;100879.63;5088487;28;20194;-74
2023/03/18 03:29:38;;;;;;;6.80;4.80;;;;;;;9.79;100.00;100876.16;5088056;28;20192;-71
2023/03/18 03:32:04;;;;;;;5.80;4.30;;;;;;;9.79;100.00;100881.28;5089299;28;20614;-70
2023/03/18 03:34:30;;;;;;;7.33;4.70;;;;;;;9.78;100.00;100889.78;5103544;28;20185;-71
2023/03/18 03:36:55;;;;;;;10.97;5.27;;;;;;;9.79;100.00;100883.84;5073313;28;20237;-69
2023/03/18 03:39:23;;;;;;;5.57;4.40;;;;;;;9.78;100.00;100883.00;5083517;28;20187;-71
2023/03/18 03:41:50;;;;;;;8.67;4.90;;;;;;;9.77;100.00;100877.84;5108330;28;20864;-70
2023/03/18 03:44:16;;;;;;;6.70;4.40;;;;;;;9.77;100.00;100882.94;5083295;28;20275;-70
2023/03/18 03:46:41;;;;;;;5.57;4.50;;;;;;;9.77;100.00;100885.50;5102410;28;20176;-70
2023/03/18 03:49:06;;;;;;;6.93;5.33;;;;;;;9.77;100.00;100875.28;5087512;28;20196;-72
2023/03/18 03:51:32;;;;;;;7.20;5.10;;;;;;;9.73;100.00;100876.88;5088630;28;20219;-73
2023/03/18 03:53:58;;;;;;;9.33;6.20;;;;;;;9.71;100.00;100875.13;5089385;28;20241;-72
2023/03/18 03:56:23;;;;;;;12.60;7.20;;;;;;;9.75;100.00;100876.91;5089021;28;20216;-71
2023/03/18 03:58:49;;;;;;;12.57;7.27;;;;;;;9.75;100.00;100884.59;5084446;28;20185;-70
2023/03/18 04:01:15;;;;;;;8.03;6.60;;;;;;;9.71;100.00;100876.00;5085731;28;20220;-73
2023/03/18 04:03:43;;;;;;;7.10;6.30;;;;;;;9.71;100.00;100877.66;5088708;28;20190;-71
2023/03/18 04:06:09;;;;;;;7.27;5.80;;;;;;;9.71;100.00;100883.66;5085504;28;20554;-70
2023/03/18 04:08:41;;;;;;;6.40;5.50;;;;;;;9.70;100.00;100879.38;5088195;28;20610;-70
2023/03/18 04:11:06;;;;;;;7.90;5.43;;;;;;;9.71;100.00;100882.78;5088360;28;20207;-70
2023/03/18 04:13:33;;;;;;;6.63;4.93;;;;;;;9.71;100.00;100883.66;5065706;28;20551;-70
2023/03/18 04:15:58;;;;;;;7.03;4.97;;;;;;;9.72;100.00;100884.53;5092133;28;20204;-71
2023/03/18 04:18:24;;;;;;;6.80;5.07;;;;;;;9.72;100.00;100884.53;5086624;28;20192;-72
2023/03/18 04:20:50;;;;;;;7.37;5.17;;;;;;;9.74;100.00;100900.75;5067092;28;20246;-70
2023/03/18 04:23:26;;;;;;;7.40;5.13;;;;;;;9.73;100.00;100899.03;5085300;28;20190;-71
2023/03/18 04:25:51;;;;;;;7.23;5.33;;;;;;;9.71;100.00;100903.25;5091310;28;20194;-70
2023/03/18 04:28:17;;;;;;;7.73;5.13;;;;;;;9.71;100.00;100904.13;5089577;28;20203;-71
2023/03/18 04:30:42;;;;;;;6.83;5.07;;;;;;;9.71;100.00;100900.69;5074035;28;20215;-70
2023/03/18 04:33:13;;;;;;;7.20;4.90;;;;;;;9.71;100.00;100900.69;5082735;28;20180;-70
2023/03/18 04:35:42;;;;;;;8.00;4.90;;;;;;;9.70;100.00;100897.28;5087625;28;20715;-72
2023/03/18 04:38:09;;;;;;;8.27;5.13;;;;;;;9.69;100.00;100899.78;5102906;28;20192;-71
2023/03/18 04:40:34;;;;;;;7.10;5.47;;;;;;;9.69;100.00;100898.13;5071401;28;20225;-70
2023/03/18 04:43:00;;;;;;;7.47;5.17;;;;;;;9.67;100.00;100906.59;5089281;28;20195;-71
2023/03/18 04:45:28;;;;;;;10.67;5.70;;;;;;;9.67;100.00;100902.31;5086072;28;20579;-70
2023/03/18 04:47:56;;;;;;;6.13;4.70;;;;;;;9.69;100.00;100910.03;5085536;28;20583;-72
2023/03/18 04:50:23;;;;;;;8.37;5.30;;;;;;;9.68;100.00;100908.31;5089815;28;20673;-70
2023/03/18 04:52:49;;;;;;;9.80;5.83;;;;;;;9.65;100.00;100914.22;5093834;28;20282;-70
2023/03/18 04:55:20;;;;;;;9.43;5.67;;;;;;;9.65;100.00;100910.78;5092877;28;20239;-72
2023/03/18 04:57:47;;;;;;;6.47;5.70;;;;;;;9.64;100.00;100899.66;5093414;28;20194;-70
2023/03/18 05:00:20;;;;;;;8.77;5.73;;;;;;;9.68;100.00;100905.75;5086180;28;20278;-70
2023/03/18 05:02:48;;;;;;;7.40;5.73;;;;;;;9.65;100.00;100911.66;5079803;28;20214;-70
2023/03/18 05:05:14;;;;;;;7.80;5.87;;;;;;;9.65;100.00;100921.88;5091669;28;20558;-70
2023/03/18 05:07:44;;;;;;;9.60;6.43;;;;;;;9.63;100.00;100932.91;5091633;28;20245;-70
2023/03/18 05:10:13;;;;;;;8.07;5.83;;;;;;;9.61;100.00;100922.63;5073641;28;20199;-70
2023/03/18 05:12:38;;;;;;;10.77;6.60;;;;;;;9.62;100.00;100923.47;5106733;28;20211;-70
2023/03/18 05:15:06;;;;;;;10.13;7.23;;;;;;;9.59;100.00;100921.72;5093410;28;20192;-70
2023/03/18 05:17:34;;;;;;;8.53;6.67;;;;;;;9.59;100.00;100916.59;5090896;28;20562;-71
2023/03/18 05:20:03;;;;;;;10.27;6.70;;;;;;;9.61;100.00;100908.97;5088624;28;20656;-70
2023/03/18 05:22:28;;;;;;;11.30;6.97;;;;;;;9.58;100.00;100899.53;5086625;28;20204;-71
2023/03/18 05:25:02;;;;;;;11.40;7.40;;;;;;;9.59;100.00;100898.69;5089533;28;20279;-70
2023/03/18 05:27:29;;;;;;;10.50;7.37;;;;;;;9.58;100.00;100909.75;5103068;28;20195;-70
2023/03/18 05:29:59;;;;;;;12.93;8.50;;;;;;;9.59;100.00;100915.75;5092499;28;20194;-71
2023/03/18 05:32:32;;;;;;;11.73;8.80;;;;;;;9.60;100.00;100922.59;5091534;28;20338;-71
2023/03/18 05:35:02;;;;;;;11.33;8.83;;;;;;;9.61;100.00;100926.88;5086767;28;20192;-70
2023/03/18 05:37:29;;;;;;;13.90;9.47;;;;;;;9.61;100.00;100914.09;5089559;28;20600;-70
2023/03/18 05:40:03;;;;;;;12.47;8.80;;;;;;;9.59;100.00;100911.47;5088827;28;20328;-70
2023/03/18 05:42:29;;;;;;;14.87;9.93;;;;;;;9.59;100.00;100913.19;5087731;28;20215;-70
2023/03/18 05:44:55;;;;;;;13.07;9.13;;;;;;;9.58;100.00;100925.09;5093218;28;20188;-70
2023/03/18 05:47:23;;;;;;;22.03;10.90;;;;;;;9.61;100.00;100934.53;5085644;28;20185;-70
2023/03/18 05:50:02;;;;;;;16.90;10.47;;;;;;;9.63;100.00;100940.56;5089196;28;20626;-70
2023/03/18 05:52:28;;;;;;;13.53;9.50;;;;;;;9.62;100.00;100939.69;5090771;28;20240;-69
2023/03/18 05:54:56;;;;;;;17.23;11.07;;;;;;;9.63;100.00;100938.00;5092872;28;20187;-70
2023/03/18 05:57:27;;;;;;;13.63;10.00;;;;;;;9.63;100.00;100941.41;5089000;28;20589;-71
2023/03/18 05:59:58;;;;;;;15.03;10.30;;;;;;;9.64;100.00;100942.28;5088548;28;20191;-69
2023/03/18 06:02:26;;;;;;;14.50;10.13;;;;;;;9.62;100.00;100946.47;5088836;28;20239;-72
2023/03/18 06:04:52;;;;;;;16.13;9.77;;;;;;;9.60;100.00;100943.91;5105163;28;20705;-70
2023/03/18 06:07:19;;;;;;;16.17;9.67;;;;;;;9.61;100.00;100940.53;5089171;28;20188;-72
2023/03/18 06:09:44;;;;;;;12.50;8.97;;;;;;;9.63;100.00;100948.22;5091697;28;20615;-70
2023/03/18 06:12:10;;;;;;;13.03;9.07;;;;;;;9.64;100.00;100949.97;5092000;28;20276;-70
2023/03/18 06:14:36;;;;;;;15.03;9.80;;;;;;;9.64;100.00;100949.97;5087223;28;20196;-70
2023/03/18 06:17:03;;;;;;;13.80;8.97;;;;;;;9.64;100.00;100968.69;5109842;28;20211;-70
2023/03/18 06:19:30;;;;;;;13.60;9.80;;;;;;;9.65;100.00;100962.78;5089099;28;20184;-71
2023/03/18 06:21:56;;;;;;;12.47;9.10;;;;;;;9.66;100.00;100958.50;5091683;28;20212;-70
2023/03/18 06:24:22;;;;;;;16.27;9.70;;;;;;;9.66;100.00;100967.06;5089296;28;20550;-70
2023/03/18 06:26:47;;;;;;;13.37;10.30;;;;;;;9.68;100.00;100970.50;5091532;28;20191;-71
2023/03/18 06:29:13;;;;;;;16.23;10.37;;;;;;;9.70;100.00;100965.44;5086390;28;20195;-70
2023/03/18 06:31:38;;;;;;;14.70;10.10;;;;;;;9.70;100.00;100970.56;5108313;28;20263;-71
2023/03/18 06:34:06;;;;;;;20.20;10.30;;;;;;;9.72;100.00;100968.91;5090213;28;20256;-71
2023/03/18 06:36:35;;;;;;;15.07;9.80;;;;;;;9.72;100.00;100974.03;5089908;28;20225;-71
2023/03/18 06:39:04;;;;;;;17.03;11.20;;;;;;;9.74;100.00;100965.56;5090859;28;20675;-71
2023/03/18 06:41:30;;;;;;;16.30;11.47;;;;;;;9.81;100.00;100956.34;5089815;28;20719;-70
2023/03/18 06:44:22;;;;;;;16.07;10.70;;;;;;;9.88;100.00;100955.66;5101117;28;20649;-70
2023/03/18 06:46:48;;;;;;;16.17;10.47;;;;;;;9.95;100.00;100972.91;5090408;28;20176;-69
2023/03/18 06:49:15;;;;;;;14.37;9.93;;;;;;;9.98;100.00;100955.91;5088090;28;20259;-69
2023/03/18 06:51:47;;;;;;;14.07;10.30;;;;;;;10.05;100.00;100956.97;5089445;28;20238;-70
2023/03/18 06:54:15;;;;;;;16.67;11.57;;;;;;;10.13;100.00;100963.97;5086002;28;20191;-70
2023/03/18 06:56:41;;;;;;;16.83;10.90;;;;;;;10.18;100.00;100972.63;5090285;28;20237;-70
2023/03/18 06:59:13;;;;;;;17.07;11.27;;;;;;;10.26;100.00;100976.22;5085558;28;20191;-70
2023/03/18 07:01:40;;;;;;;18.57;11.50;;;;;;;10.30;100.00;100980.56;5089645;28;20292;-71
2023/03/18 07:04:05;;;;;;;20.80;12.33;;;;;;;10.41;100.00;100993.63;5089830;28;20303;-71
2023/03/18 07:06:31;;;;;;;19.63;12.07;;;;;;;10.47;100.00;100992.03;5088419;28;20657;-71
2023/03/18 07:08:58;;;;;;;18.10;11.80;;;;;;;10.54;100.00;100998.16;5090958;28;20279;-71
2023/03/18 07:11:24;;;;;;;19.73;13.27;;;;;;;10.53;100.00;100992.19;5087977;28;20227;-70
2023/03/18 07:13:52;;;;;;;16.67;12.03;;;;;;;10.60;100.00;101000.88;5070861;28;20196;-71
2023/03/18 07:16:26;;;;;;;16.60;11.50;;;;;;;10.66;100.00;100999.31;5087470;28;20315;-70
2023/03/18 07:18:52;;;;;;;19.80;12.47;;;;;;;10.72;100.00;101001.13;5089431;28;20213;-71
2023/03/18 07:21:18;;;;;;;16.33;11.73;;;;;;;10.79;100.00;101001.28;5085365;28;20217;-69
2023/03/18 07:23:46;;;;;;;17.73;12.57;;;;;;;10.89;100.00;100998.09;5086946;28;20632;-72
2023/03/18 07:26:11;;;;;;;17.50;12.13;;;;;;;11.02;100.00;101006.88;5077009;28;20188;-72
2023/03/18 07:28:37;;;;;;;17.43;12.50;;;;;;;11.11;100.00;101000.22;5088206;28;22713;-71
2023/03/18 07:31:02;;;;;;;17.63;11.93;;;;;;;11.16;100.00;101008.88;5085883;28;20625;-71
2023/03/18 07:33:28;;;;;;;19.60;12.10;;;;;;;11.22;100.00;101003.88;5103551;28;20188;-72
2023/03/18 07:35:54;;;;;;;18.20;12.60;;;;;;;11.33;100.00;101011.78;5104340;28;20246;-72
2023/03/18 07:38:19;;;;;;;15.93;11.43;;;;;;;11.50;100.00;101006.13;5108056;28;20256;-69
2023/03/18 07:40:45;;;;;;;21.67;12.67;;;;;;;11.69;100.00;101010.75;5103047;28;20195;-72
2023/03/18 07:43:10;;;;;;;20.40;13.67;;;;;;;11.83;100.00;101011.00;5078472;28;20227;-72
2023/03/18 07:45:36;;;;;;;18.53;12.50;;;;;;;11.76;100.00;101015.16;5103783;28;20192;-71
2023/03/18 07:48:01;;;;;;;16.23;11.30;;;;;;;11.71;100.00;101028.75;5109160;28;20196;-70
2023/03/18 07:50:27;;;;;;;19.87;11.27;;;;;;;11.68;100.00;101037.25;5102627;28;20696;-70
2023/03/18 07:52:52;;;;;;;16.63;11.90;;;;;;;11.69;100.00;101036.41;5108171;28;20183;-72
2023/03/18 07:55:18;;;;;;;17.57;11.87;;;;;;;11.66;100.00;101038.91;5103900;28;20199;-71
2023/03/18 07:57:44;;;;;;;17.17;12.67;;;;;;;11.69;100.00;101033.84;5104248;28;20199;-71
2023/03/18 08:00:11;;;;;;;18.13;12.30;;;;;;;11.70;100.00;101027.88;5101360;28;20188;-71
2023/03/18 08:02:40;;;;;;;19.33;12.33;;;;;;;11.67;100.00;101029.53;5107959;28;20212;-70
2023/03/18 08:05:06;;;;;;;17.30;11.90;;;;;;;11.67;100.00;101032.97;5103757;28;20194;-72
2023/03/18 08:07:33;;;;;;;17.33;12.30;;;;;;;11.65;100.00;101023.50;5107235;28;20610;-72
2023/03/18 08:09:59;;;;;;;17.90;11.87;;;;;;;11.67;100.00;101040.66;5104952;28;20209;-71
2023/03/18 08:12:25;;;;;;;19.60;12.50;;;;;;;11.66;100.00;101038.06;5106287;28;20294;-71
2023/03/18 08:14:51;;;;;;;18.67;12.20;;;;;;;11.69;100.00;101041.53;5102260;28;20275;-72
2023/03/18 08:17:16;;;;;;;20.57;12.33;;;;;;;11.74;100.00;101049.31;5108431;28;20302;-70
2023/03/18 08:19:42;;;;;;;19.40;13.07;;;;;;;11.74;100.00;101052.75;5087342;28;20240;-71
2023/03/18 08:22:08;;;;;;;20.03;13.23;;;;;;;11.78;100.00;101051.09;5105606;28;20237;-71
2023/03/18 08:24:36;;;;;;;17.40;11.90;;;;;;;11.81;100.00;101056.28;5106019;28;20258;-70
2023/03/18 08:27:02;;;;;;;16.67;11.70;;;;;;;11.83;100.00;101062.31;5109010;28;20217;-71
2023/03/18 08:29:28;;;;;;;19.50;11.87;;;;;;;11.86;100.00;101057.22;5110390;28;20192;-71
2023/03/18 08:31:53;;;;;;;18.03;11.13;;;;;;;11.95;100.00;101050.56;5111619;28;20315;-71
2023/03/18 08:34:19;;;;;;;18.47;11.73;;;;;;;12.03;100.00;101048.13;5092263;28;20191;-69
2023/03/18 08:36:45;;;;;;;16.97;11.07;;;;;;;12.09;100.00;101055.91;5110462;28;20307;-71
2023/03/18 08:39:10;;;;;;;20.50;11.27;;;;;;;12.15;100.00;101056.88;5112353;28;20223;-71
2023/03/18 08:41:36;;;;;;;19.03;12.40;;;;;;;12.21;100.00;101066.41;5074931;28;20235;-71
2023/03/18 08:44:04;;;;;;;18.83;11.60;;;;;;;12.17;100.00;101075.75;5111961;28;20648;-71
2023/03/18 08:46:30;;;;;;;17.87;11.43;;;;;;;12.19;100.00;101071.50;5109405;28;20188;-71
2023/03/18 08:48:55;;;;;;;16.90;11.30;;;;;;;12.25;100.00;101063.91;5092999;28;20208;-70
2023/03/18 08:51:21;;;;;;;14.70;10.90;;;;;;;12.29;100.00;101065.69;5109004;28;20326;-71
2023/03/18 08:53:47;;;;;;;17.80;11.37;;;;;;;12.33;100.00;101069.16;5111919;28;20199;-73
2023/03/18 08:56:13;;;;;;;16.40;10.87;;;;;;;12.32;100.00;101064.84;5110265;28;20218;-71
2023/03/18 08:58:39;;;;;;;15.57;11.90;;;;;;;12.31;100.00;101068.28;5111277;28;20691;-71
2023/03/18 09:01:04;;;;;;;15.80;11.00;;;;;;;12.33;100.00;101077.72;5109443;28;20298;-70
2023/03/18 09:03:31;;;;;;;19.33;10.63;;;;;;;12.35;100.00;101075.19;5111377;28;20195;-72
2023/03/18 09:05:56;;;;;;;15.77;10.97;;;;;;;12.36;100.00;101082.91;5088539;28;20195;-70
2023/03/18 09:08:22;;;;;;;17.33;10.07;;;;;;;12.36;100.00;101082.91;5111965;28;20195;-69
2023/03/18 09:10:55;;;;;;;14.53;10.53;;;;;;;12.35;100.00;101091.44;5109182;28;20328;-70
2023/03/18 09:13:21;;;;;;;15.43;10.53;;;;;;;12.33;100.00;101088.00;5111480;28;20676;-73
2023/03/18 09:15:46;;;;;;;13.33;9.80;;;;;;;12.37;100.00;101094.03;5109113;28;20847;-70
2023/03/18 09:18:15;;;;;;;14.17;10.20;;;;;;;12.46;100.00;101092.50;5095037;28;20319;-69
2023/03/18 09:20:42;;;;;;;14.00;10.47;;;;;;;12.60;100.00;101097.84;5087849;28;20835;-69
2023/03/18 09:23:08;;;;;;;15.53;10.23;;;;;;;12.68;100.00;101109.09;5104366;28;20234;-69
2023/03/18 09:25:34;;;;;;;14.73;10.73;;;;;;;12.66;100.00;101115.91;5107492;28;20192;-70
2023/03/18 09:27:59;;;;;;;13.30;10.10;;;;;;;12.65;100.00;101115.06;5104439;28;20669;-70
2023/03/18 09:30:26;;;;;;;15.63;10.60;;;;;;;12.78;100.00;101116.97;5105976;28;20188;-69
2023/03/18 09:32:52;;;;;;;15.50;10.13;;;;;;;12.88;100.00;101113.69;5108045;28;20259;-69
2023/03/18 09:35:18;;;;;;;18.27;10.87;;;;;;;12.91;100.00;101125.72;5109315;28;20588;-69
2023/03/18 09:37:44;;;;;;;15.20;9.57;;;;;;;12.91;100.00;101124.00;5107717;28;20184;-69
2023/03/18 09:40:26;;;;;;;15.30;10.27;;;;;;;12.95;100.00;101128.34;5105591;28;20609;-69
2023/03/18 09:43:08;;;;;;;13.47;9.70;;;;;;;13.09;100.00;101123.44;5106344;28;20219;-69
2023/03/18 09:45:50;;;;;;;11.30;9.17;;;;;;;13.22;100.00;101132.19;5107647;28;20703;-69
2023/03/18 09:48:53;;;;;;;11.30;9.03;;;;;;;13.23;100.00;101128.75;5105909;28;20290;-69
2023/03/18 09:52:06;;;;;;;12.77;8.63;;;;;;;13.33;100.00;101131.47;5104440;28;20206;-70
2023/03/18 09:54:48;;;;;;;12.73;8.70;;;;;;;13.72;100.00;101131.94;5025335;28;20210;-68
2023/03/18 09:57:30;;;;;;;11.27;8.27;;;;;;;14.38;100.00;101129.22;5084110;28;20226;-70
2023/03/18 10:00:17;;;;;;;9.63;8.13;;;;;;;14.78;100.00;101120.94;5109007;28;20191;-70
2023/03/18 10:03:08;;;;;;;10.87;8.13;;;;;;;16.92;100.00;101061.16;5096327;27;20753;-70
2023/03/18 10:05:45;;;;;;;11.27;7.43;;;;;;;15.40;100.00;101086.03;5075461;28;20208;-71
2023/03/18 10:08:52;;;;;;;11.13;7.70;;;;;;;15.08;100.00;101114.25;5089065;28;20286;-72
2023/03/18 10:11:25;;;;;;;10.40;7.40;;;;;;;15.03;100.00;101115.94;5076463;28;20699;-71
2023/03/18 10:14:29;;;;;;;10.87;7.57;;;;;;;14.73;100.00;101130.34;5108933;28;20196;-70
2023/03/18 10:17:23;;;;;;;10.10;7.80;;;;;;;14.60;100.00;101129.38;5082819;28;20587;-69
2023/03/18 10:19:58;;;;;;;9.80;7.73;;;;;;;14.50;100.00;101135.31;5106257;28;20256;-70
2023/03/18 10:22:53;;;;;;;12.03;7.77;;;;;;;14.43;100.00;101138.72;5108507;28;20348;-70
2023/03/18 10:25:36;;;;;;;10.57;7.40;;;;;;;14.47;100.00;101137.00;5109725;28;20660;-70
2023/03/18 10:28:27;;;;;;;10.87;7.40;;;;;;;14.64;100.00;101133.72;5108886;28;20215;-70
2023/03/18 10:31:11;;;;;;;11.33;7.43;;;;;;;14.77;100.00;101140.69;5107392;28;20215;-70
2023/03/18 10:33:46;;;;;;;9.93;6.37;;;;;;;14.84;100.00;101151.91;5109341;28;20187;-70
2023/03/18 10:36:35;;;;;;;8.97;6.27;;;;;;;14.94;100.00;101139.09;5107167;28;20215;-70
2023/03/18 10:39:02;;;;;;;9.73;5.77;;;;;;;15.29;100.00;101131.56;5109261;28;20205;-71
2023/03/18 10:41:34;;;;;;;8.17;4.93;;;;;;;15.11;100.00;101131.47;5108624;28;20222;-70
2023/03/18 10:44:19;;;;;;;8.33;6.03;;;;;;;14.95;100.00;101145.09;5109896;28;20282;-69
2023/03/18 10:46:56;;;;;;;7.80;5.67;;;;;;;14.87;100.00;101146.78;5108678;28;20562;-70
2023/03/18 10:49:36;;;;;;;10.50;6.30;;;;;;;14.75;100.00;101154.41;5096599;28;20652;-69
2023/03/18 10:52:10;;;;;;;9.97;5.80;;;;;;;14.69;100.00;101144.91;5108032;28;20212;-70
2023/03/18 10:54:51;;;;;;;8.30;6.10;;;;;;;14.70;100.00;101151.81;5108297;28;20564;-70
2023/03/18 10:57:18;;;;;;;10.43;7.10;;;;;;;14.60;100.00;101155.16;5105576;28;20219;-69
2023/03/18 10:59:44;;;;;;;12.27;8.10;;;;;;;14.43;100.00;101153.28;5089227;28;20671;-69
2023/03/18 11:02:21;;;;;;;11.13;9.23;;;;;;;14.42;100.00;101169.63;5107911;28;20242;-70
2023/03/18 11:04:53;;;;;;;16.03;11.33;;;;;;;14.18;100.00;101166.78;5106555;28;20279;-70
2023/03/18 11:07:24;;;;;;;17.20;12.53;;;;;;;14.17;100.00;101163.31;5105636;28;20187;-71
2023/03/18 11:09:50;;;;;;;17.73;11.93;;;;;;;14.40;100.00;101153.25;5109357;28;20199;-69
2023/03/18 11:12:21;;;;;;;14.07;10.90;;;;;;;14.77;100.00;101151.00;5105699;28;20298;-71
2023/03/18 11:14:48;;;;;;;15.00;12.20;;;;;;;14.81;100.00;101142.44;5107379;28;20198;-69
2023/03/18 11:17:30;;;;;;;16.77;13.17;;;;;;;14.64;100.00;101151.75;5108936;28;20215;-69
2023/03/18 11:20:30;;;;;;;17.80;11.90;;;;;;;14.72;100.00;101149.22;5104265;28;20200;-70
2023/03/18 11:23:11;;;;;;;17.03;12.27;;;;;;;14.95;100.00;101143.41;5102827;28;20392;-69
2023/03/18 11:25:37;;;;;;;16.10;13.17;;;;;;;15.17;100.00;101131.47;5108008;28;20198;-69